createdAt,value
2022-11-01T00:01:07.994Z,14.95
2022-11-01T00:03:34.709Z,14.86
2022-11-01T00:06:01.648Z,14.80
2022-11-01T00:08:28.377Z,14.79
2022-11-01T00:11:08.291Z,14.81
2022-11-01T00:13:34.863Z,14.83
2022-11-01T00:16:01.717Z,14.78
2022-11-01T00:18:28.412Z,14.73
2022-11-01T00:20:55.072Z,14.66
2022-11-01T00:23:21.646Z,14.61
2022-11-01T00:25:48.375Z,14.55
2022-11-01T00:28:15.040Z,14.51
2022-11-01T00:30:41.787Z,14.40
2022-11-01T00:33:08.619Z,14.33
2022-11-01T00:35:38.404Z,14.29
2022-11-01T00:38:06.264Z,14.25
2022-11-01T00:40:33.122Z,14.24
2022-11-01T00:42:59.942Z,14.23
2022-11-01T00:45:26.568Z,14.25
2022-11-01T00:47:53.177Z,14.23
2022-11-01T00:50:19.941Z,14.22
2022-11-01T00:52:46.935Z,14.20
2022-11-01T00:55:13.606Z,14.19
2022-11-01T00:57:40.190Z,14.15
2022-11-01T01:00:07.489Z,14.14
2022-11-01T01:02:34.315Z,14.15
2022-11-01T01:05:01.168Z,14.15
2022-11-01T01:07:27.858Z,14.12
2022-11-01T01:09:54.545Z,14.11
2022-11-01T01:12:21.407Z,14.11
2022-11-01T01:14:48.317Z,14.09
2022-11-01T01:17:15.104Z,14.06
2022-11-01T01:19:41.987Z,14.07
2022-11-01T01:22:08.777Z,14.02
2022-11-01T01:24:35.380Z,13.97
2022-11-01T01:27:01.965Z,13.93
2022-11-01T01:29:28.655Z,13.94
2022-11-01T01:31:55.352Z,13.90
2022-11-01T01:34:21.981Z,13.91
2022-11-01T01:36:48.578Z,13.94
2022-11-01T01:39:15.165Z,13.90
2022-11-01T01:41:56.635Z,13.89
2022-11-01T01:44:51.622Z,13.81
2022-11-01T01:47:23.719Z,13.74
2022-11-01T01:49:55.300Z,13.72
2022-11-01T01:52:22.555Z,13.67
2022-11-01T01:54:51.093Z,13.61
2022-11-01T01:57:19.082Z,13.59
2022-11-01T01:59:46.254Z,13.58
2022-11-01T02:02:14.140Z,13.56
2022-11-01T02:04:53.100Z,13.51
2022-11-01T02:07:19.699Z,13.56
2022-11-01T02:09:46.607Z,13.55
2022-11-01T02:12:14.411Z,13.54
2022-11-01T02:14:43.948Z,13.58
2022-11-01T02:17:16.519Z,13.49
2022-11-01T02:20:01.517Z,13.46
2022-11-01T02:22:53.749Z,13.48
2022-11-01T02:25:41.237Z,13.57
2022-11-01T02:29:01.792Z,13.57
2022-11-01T02:31:49.212Z,13.65
2022-11-01T02:34:39.091Z,13.77
2022-11-01T02:37:28.549Z,13.90
2022-11-01T02:40:07.513Z,14.00
2022-11-01T02:42:41.517Z,14.09
2022-11-01T02:45:11.959Z,14.10
2022-11-01T02:47:39.824Z,14.06
2022-11-01T02:50:09.638Z,14.11
2022-11-01T02:52:40.343Z,14.13
2022-11-01T02:55:34.170Z,14.09
2022-11-01T02:58:16.451Z,14.08
2022-11-01T03:00:44.489Z,14.15
2022-11-01T03:03:32.820Z,14.17
2022-11-01T03:06:05.155Z,14.18
2022-11-01T03:08:53.058Z,14.24
2022-11-01T03:11:22.741Z,14.30
2022-11-01T03:13:58.256Z,14.31
2022-11-01T03:16:36.282Z,14.30
2022-11-01T03:19:22.730Z,14.42
2022-11-01T03:21:52.572Z,14.35
2022-11-01T03:24:29.099Z,14.30
2022-11-01T03:27:07.536Z,14.34
2022-11-01T03:29:36.636Z,14.32
2022-11-01T03:32:04.913Z,14.31
2022-11-01T03:34:34.507Z,14.31
2022-11-01T03:37:05.973Z,14.27
2022-11-01T03:39:47.308Z,14.27
2022-11-01T03:42:18.298Z,14.27
2022-11-01T03:44:49.353Z,14.26
2022-11-01T03:47:16.255Z,14.22
2022-11-01T03:49:42.819Z,14.21
2022-11-01T03:52:09.760Z,14.21
2022-11-01T03:54:36.607Z,14.25
2022-11-01T03:57:03.321Z,14.26
2022-11-01T03:59:30.147Z,14.26
2022-11-01T04:01:56.881Z,14.27
2022-11-01T04:04:23.643Z,14.24
2022-11-01T04:06:51.223Z,14.20
2022-11-01T04:09:17.863Z,14.18
2022-11-01T04:11:44.458Z,14.18
2022-11-01T04:14:32.537Z,14.13
2022-11-01T04:17:17.627Z,14.12
2022-11-01T04:20:02.930Z,14.10
2022-11-01T04:22:29.539Z,14.09
2022-11-01T04:24:56.104Z,14.10
2022-11-01T04:27:22.709Z,14.11
2022-11-01T04:29:49.279Z,14.10
2022-11-01T04:32:15.887Z,14.09
2022-11-01T04:34:42.470Z,14.03
2022-11-01T04:37:09.971Z,14.00
2022-11-01T04:39:36.848Z,14.02
2022-11-01T04:42:03.569Z,14.03
2022-11-01T04:44:30.148Z,14.01
2022-11-01T04:46:56.747Z,13.99
2022-11-01T04:49:23.338Z,13.98
2022-11-01T04:51:49.932Z,13.97
2022-11-01T04:54:16.505Z,13.93
2022-11-01T04:56:43.248Z,13.95
2022-11-01T04:59:09.838Z,13.94
2022-11-01T05:01:36.524Z,13.95
2022-11-01T05:04:03.385Z,13.98
2022-11-01T05:06:30.027Z,13.99
2022-11-01T05:08:56.656Z,13.99
2022-11-01T05:11:25.711Z,13.95
2022-11-01T05:13:52.840Z,13.93
2022-11-01T05:16:20.617Z,13.90
2022-11-01T05:18:47.511Z,13.89
2022-11-01T05:21:14.155Z,13.90
2022-11-01T05:23:40.785Z,13.88
2022-11-01T05:26:07.529Z,13.88
2022-11-01T05:28:34.752Z,13.85
2022-11-01T05:31:01.524Z,13.83
2022-11-01T05:33:28.216Z,13.81
2022-11-01T05:35:54.832Z,13.80
2022-11-01T05:38:21.509Z,13.79
2022-11-01T05:40:48.228Z,13.77
2022-11-01T05:43:14.957Z,13.78
2022-11-01T05:45:41.575Z,13.80
2022-11-01T05:48:08.469Z,13.87
2022-11-01T05:50:35.165Z,13.92
2022-11-01T05:53:06.503Z,13.97
2022-11-01T05:55:33.194Z,13.98
2022-11-01T05:57:59.800Z,13.99
2022-11-01T06:00:26.495Z,14.01
2022-11-01T06:02:53.085Z,13.97
2022-11-01T06:05:19.659Z,13.94
2022-11-01T06:07:46.287Z,14.07
2022-11-01T06:10:12.868Z,14.09
2022-11-01T06:12:39.481Z,14.11
2022-11-01T06:15:06.530Z,14.07
2022-11-01T06:17:33.321Z,14.07
2022-11-01T06:19:59.999Z,14.07
2022-11-01T06:22:26.650Z,14.04
2022-11-01T06:24:53.270Z,14.01
2022-11-01T06:27:19.842Z,13.95
2022-11-01T06:29:46.595Z,13.93
2022-11-01T06:32:13.243Z,13.97
2022-11-01T06:34:42.415Z,14.00
2022-11-01T06:37:11.531Z,14.06
2022-11-01T06:39:38.254Z,14.07
2022-11-01T06:42:04.945Z,14.09
2022-11-01T06:44:31.814Z,14.09
2022-11-01T06:46:58.396Z,14.15
2022-11-01T06:49:25.432Z,14.21
2022-11-01T06:51:52.005Z,14.23
2022-11-01T06:54:18.642Z,14.25
2022-11-01T06:56:47.790Z,14.29
2022-11-01T06:59:16.483Z,14.25
2022-11-01T07:01:44.226Z,14.27
2022-11-01T07:06:42.731Z,14.32
2022-11-01T07:09:09.511Z,14.36
2022-11-01T07:11:36.354Z,14.42
2022-11-01T07:14:03.350Z,14.48
2022-11-01T07:16:29.965Z,14.45
2022-11-01T07:18:56.566Z,14.37
2022-11-01T07:21:23.375Z,14.39
2022-11-01T07:23:50.630Z,14.37
2022-11-01T07:26:17.767Z,14.31
2022-11-01T07:28:44.354Z,14.28
2022-11-01T07:31:10.925Z,14.29
2022-11-01T07:33:37.585Z,14.32
2022-11-01T07:36:04.908Z,14.37
2022-11-01T07:38:31.891Z,14.37
2022-11-01T07:40:59.101Z,14.46
2022-11-01T07:43:26.156Z,14.52
2022-11-01T07:45:53.650Z,14.53
2022-11-01T07:48:20.354Z,14.55
2022-11-01T07:50:47.059Z,14.52
2022-11-01T07:53:17.155Z,14.44
2022-11-01T07:55:45.386Z,14.47
2022-11-01T07:58:13.297Z,14.46
2022-11-01T08:00:40.977Z,14.48
2022-11-01T08:03:10.156Z,14.46
2022-11-01T08:05:37.362Z,14.38
2022-11-01T08:08:05.756Z,14.29
2022-11-01T08:10:33.736Z,14.24
2022-11-01T08:13:23.024Z,14.24
2022-11-01T08:15:51.727Z,14.01
2022-11-01T08:18:21.486Z,13.96
2022-11-01T08:20:48.714Z,13.96
2022-11-01T08:23:15.356Z,13.98
2022-11-01T08:25:41.972Z,13.90
2022-11-01T08:28:12.679Z,13.96
2022-11-01T08:30:41.620Z,13.89
2022-11-01T08:33:08.225Z,13.87
2022-11-01T08:35:34.961Z,13.80
2022-11-01T08:38:03.341Z,13.95
2022-11-01T08:40:31.487Z,14.15
2022-11-01T08:42:59.182Z,14.14
2022-11-01T08:45:26.345Z,13.95
2022-11-01T08:48:01.011Z,13.71
2022-11-01T08:50:28.471Z,13.62
2022-11-01T08:52:55.238Z,13.64
2022-11-01T08:55:23.054Z,13.69
2022-11-01T08:57:50.105Z,13.77
2022-11-01T09:00:17.647Z,13.56
2022-11-01T09:02:44.322Z,13.66
2022-11-01T09:05:10.936Z,13.72
2022-11-01T09:07:38.098Z,13.78
2022-11-01T09:10:06.445Z,13.73
2022-11-01T09:12:33.482Z,14.05
2022-11-01T09:15:00.215Z,14.32
2022-11-01T09:17:26.919Z,14.48
2022-11-01T09:19:53.502Z,14.55
2022-11-01T09:22:20.112Z,14.42
2022-11-01T09:24:46.786Z,14.50
2022-11-01T09:27:13.383Z,14.51
2022-11-01T09:29:40.549Z,14.68
2022-11-01T09:32:07.302Z,14.74
2022-11-01T09:34:34.746Z,14.70
2022-11-01T09:37:01.808Z,14.75
2022-11-01T09:39:28.427Z,14.77
2022-11-01T09:41:59.870Z,14.71
2022-11-01T09:44:30.820Z,14.75
2022-11-01T09:47:12.468Z,14.65
2022-11-01T09:49:44.159Z,14.75
2022-11-01T09:52:23.833Z,14.72
2022-11-01T09:54:51.043Z,14.79
2022-11-01T09:57:35.760Z,14.91
2022-11-01T10:00:21.332Z,14.99
2022-11-01T10:03:14.828Z,14.84
2022-11-01T10:06:15.515Z,14.84
2022-11-01T10:09:19.263Z,14.74
2022-11-01T10:12:05.153Z,14.83
2022-11-01T10:14:55.750Z,14.95
2022-11-01T10:17:53.030Z,15.08
2022-11-01T10:20:27.871Z,14.83
2022-11-01T10:22:55.339Z,14.80
2022-11-01T10:25:24.738Z,14.90
2022-11-01T10:27:57.014Z,15.00
2022-11-01T10:30:24.347Z,14.99
2022-11-01T10:33:02.419Z,15.03
2022-11-01T10:35:43.247Z,15.02
2022-11-01T10:41:29.893Z,15.04
2022-11-01T10:44:02.374Z,14.93
2022-11-01T10:46:38.388Z,14.99
2022-11-01T10:49:12.462Z,14.87
2022-11-01T10:51:40.873Z,14.89
2022-11-01T10:54:16.171Z,14.93
2022-11-01T10:56:47.510Z,14.81
2022-11-01T10:59:25.658Z,14.83
2022-11-01T11:01:54.963Z,14.84
2022-11-01T11:04:24.046Z,14.85
2022-11-01T11:06:51.921Z,14.85
2022-11-01T11:09:24.131Z,14.79
2022-11-01T11:11:51.432Z,14.78
2022-11-01T11:14:21.243Z,14.73
2022-11-01T11:16:54.038Z,14.66
2022-11-01T11:19:29.685Z,14.64
2022-11-01T11:21:57.894Z,14.60
2022-11-01T11:24:24.461Z,14.61
2022-11-01T11:26:55.668Z,14.56
2022-11-01T11:29:36.939Z,14.63
2022-11-01T11:32:08.246Z,14.67
2022-11-01T11:34:38.288Z,14.77
2022-11-01T11:37:07.911Z,14.92
2022-11-01T11:39:37.218Z,14.92
2022-11-01T11:42:20.596Z,15.02
2022-11-01T11:44:52.134Z,14.89
2022-11-01T11:47:34.778Z,14.94
2022-11-01T11:50:26.508Z,14.84
2022-11-01T11:53:22.253Z,14.81
2022-11-01T11:55:56.914Z,14.83
2022-11-01T11:58:36.397Z,14.89
2022-11-01T12:01:15.788Z,14.74
2022-11-01T12:04:07.529Z,14.53
2022-11-01T12:06:41.290Z,14.53
2022-11-01T12:09:33.963Z,14.55
2022-11-01T12:12:08.839Z,14.67
2022-11-01T12:14:41.499Z,14.58
2022-11-01T12:17:31.447Z,14.54
2022-11-01T12:20:28.992Z,14.49
2022-11-01T12:23:13.873Z,14.48
2022-11-01T12:25:44.244Z,14.41
2022-11-01T12:28:19.410Z,14.54
2022-11-01T12:30:50.911Z,14.60
2022-11-01T12:33:35.918Z,14.51
2022-11-01T12:36:03.921Z,14.57
2022-11-01T12:38:59.037Z,14.61
2022-11-01T12:41:43.220Z,14.46
2022-11-01T12:44:22.439Z,14.56
2022-11-01T12:46:58.469Z,14.50
2022-11-01T12:49:53.373Z,14.53
2022-11-01T12:52:29.684Z,14.52
2022-11-01T12:55:01.987Z,14.45
2022-11-01T12:57:28.935Z,14.46
2022-11-01T12:59:55.664Z,14.41
2022-11-01T13:02:38.368Z,14.45
2022-11-01T13:05:13.101Z,14.40
2022-11-01T13:07:55.912Z,14.35
2022-11-01T13:10:36.214Z,14.38
2022-11-01T13:13:30.495Z,14.48
2022-11-01T13:16:02.595Z,14.46
2022-11-01T13:18:58.204Z,14.43
2022-11-01T13:21:37.724Z,14.53
2022-11-01T13:24:30.900Z,14.50
2022-11-01T13:27:18.006Z,14.48
2022-11-01T13:30:01.846Z,14.41
2022-11-01T13:32:50.280Z,14.42
2022-11-01T13:35:44.645Z,14.40
2022-11-01T13:38:32.643Z,14.45
2022-11-01T13:41:03.432Z,14.42
2022-11-01T13:43:39.510Z,14.31
2022-11-01T13:46:27.972Z,14.36
2022-11-01T13:49:09.567Z,14.31
2022-11-01T13:51:45.851Z,14.26
2022-11-01T13:54:25.931Z,14.32
2022-11-01T13:57:00.490Z,14.25
2022-11-01T13:59:50.244Z,14.16
2022-11-01T14:02:23.157Z,14.09
2022-11-01T14:05:12.604Z,14.08
2022-11-01T14:07:45.240Z,14.14
2022-11-01T14:10:17.700Z,14.03
2022-11-01T14:12:49.184Z,14.03
2022-11-01T14:15:27.231Z,14.06
2022-11-01T14:17:57.965Z,14.02
2022-11-01T14:20:31.557Z,14.01
2022-11-01T14:22:59.010Z,13.94
2022-11-01T14:25:31.256Z,13.91
2022-11-01T14:28:16.326Z,13.85
2022-11-01T14:30:46.753Z,13.87
2022-11-01T14:33:23.702Z,13.85
2022-11-01T14:35:54.671Z,13.80
2022-11-01T14:38:36.945Z,13.75
2022-11-01T14:41:05.397Z,13.67
2022-11-01T14:44:12.397Z,13.69
2022-11-01T14:46:46.848Z,13.66
2022-11-01T14:49:26.390Z,13.58
2022-11-01T14:52:11.038Z,13.54
2022-11-01T14:54:52.109Z,13.48
2022-11-01T14:57:27.121Z,13.43
2022-11-01T14:59:55.389Z,13.38
2022-11-01T15:02:23.838Z,13.34
2022-11-01T15:04:52.502Z,13.28
2022-11-01T15:07:30.866Z,13.23
2022-11-01T15:10:02.508Z,13.19
2022-11-01T15:12:34.296Z,13.11
2022-11-01T15:15:01.635Z,13.04
2022-11-01T15:17:34.599Z,13.00
2022-11-01T15:20:13.071Z,12.86
2022-11-01T15:22:42.585Z,12.80
2022-11-01T15:25:20.341Z,12.77
2022-11-01T15:27:48.010Z,12.76
2022-11-01T15:30:25.339Z,12.68
2022-11-01T15:33:24.325Z,12.61
2022-11-01T15:35:59.688Z,12.48
2022-11-01T15:38:27.694Z,12.43
2022-11-01T15:40:54.471Z,12.38
2022-11-01T15:43:23.851Z,12.32
2022-11-01T15:46:00.102Z,12.16
2022-11-01T15:48:33.457Z,12.04
2022-11-01T15:51:03.264Z,11.96
2022-11-01T15:53:33.808Z,11.85
2022-11-01T15:56:03.481Z,11.81
2022-11-01T15:58:40.215Z,11.77
2022-11-01T16:01:15.559Z,11.68
2022-11-01T16:03:48.383Z,11.64
2022-11-01T16:06:21.642Z,11.56
2022-11-01T16:08:55.517Z,11.48
2022-11-01T16:11:25.122Z,11.37
2022-11-01T16:14:00.783Z,11.30
2022-11-01T16:16:28.547Z,11.30
2022-11-01T16:18:55.162Z,11.27
2022-11-01T16:21:31.020Z,11.19
2022-11-01T16:24:11.923Z,11.15
2022-11-01T16:27:03.941Z,11.09
2022-11-01T16:29:52.994Z,11.00
2022-11-01T16:32:22.506Z,10.89
2022-11-01T16:34:49.787Z,10.83
2022-11-01T16:37:28.102Z,10.82
2022-11-01T16:39:55.212Z,10.77
2022-11-01T16:42:24.481Z,10.64
2022-11-01T16:44:57.146Z,10.50
2022-11-01T16:47:23.924Z,10.34
2022-11-01T16:49:53.350Z,10.19
2022-11-01T16:52:20.005Z,10.23
2022-11-01T16:54:53.133Z,10.25
2022-11-01T16:57:27.945Z,10.17
2022-11-01T16:59:55.093Z,10.04
2022-11-01T17:02:27.977Z,9.89
2022-11-01T17:05:18.756Z,9.72
2022-11-01T17:07:45.878Z,9.58
2022-11-01T17:10:21.650Z,9.49
2022-11-01T17:12:48.276Z,9.53
2022-11-01T17:15:15.930Z,9.66
2022-11-01T17:17:45.664Z,9.73
2022-11-01T17:20:22.741Z,9.75
2022-11-01T17:22:51.827Z,9.85
2022-11-01T17:25:20.277Z,9.88
2022-11-01T17:27:51.870Z,9.81
2022-11-01T17:30:19.592Z,9.79
2022-11-01T17:32:46.209Z,9.83
2022-11-01T17:35:13.100Z,9.78
2022-11-01T17:37:40.286Z,9.81
2022-11-01T17:40:20.542Z,9.89
2022-11-01T17:42:47.214Z,9.95
2022-11-01T17:45:14.239Z,9.98
2022-11-01T17:47:40.899Z,9.97
2022-11-01T17:50:12.067Z,9.91
2022-11-01T17:52:38.992Z,9.94
2022-11-01T17:55:07.120Z,10.02
2022-11-01T17:57:34.385Z,10.02
2022-11-01T18:00:02.029Z,10.04
2022-11-01T18:02:39.175Z,10.04
2022-11-01T18:05:06.989Z,10.15
2022-11-01T18:07:41.986Z,10.06
2022-11-01T18:10:21.881Z,10.12
2022-11-01T18:13:06.818Z,10.11
2022-11-01T18:15:52.177Z,10.11
2022-11-01T18:18:26.269Z,10.14
2022-11-01T18:21:05.029Z,10.15
2022-11-01T18:23:32.284Z,10.11
2022-11-01T18:25:58.863Z,10.08
2022-11-01T18:28:26.872Z,10.00
2022-11-01T18:30:56.012Z,10.12
2022-11-01T18:33:58.565Z,10.16
2022-11-01T18:36:37.133Z,10.05
2022-11-01T18:39:16.803Z,10.01
2022-11-01T18:41:47.765Z,9.95
2022-11-01T18:44:14.671Z,9.99
2022-11-01T18:46:51.951Z,9.98
2022-11-01T18:49:18.600Z,9.97
2022-11-01T18:51:46.438Z,10.00
2022-11-01T18:54:26.284Z,10.06
2022-11-01T18:57:16.164Z,9.98
2022-11-01T18:59:46.345Z,9.94
2022-11-01T19:02:27.144Z,9.87
2022-11-01T19:05:14.191Z,9.90
2022-11-01T19:08:08.953Z,9.87
2022-11-01T19:10:28.574Z,9.85
2022-11-01T19:12:55.610Z,9.82
2022-11-01T19:15:28.570Z,9.85
2022-11-01T19:17:58.470Z,9.94
2022-11-01T19:20:34.448Z,9.91
2022-11-01T19:23:11.281Z,9.80
2022-11-01T19:25:38.213Z,9.76
2022-11-01T19:28:27.634Z,9.76
2022-11-01T19:30:57.434Z,9.81
2022-11-01T19:33:38.128Z,9.83
2022-11-01T19:36:14.317Z,9.82
2022-11-01T19:38:44.937Z,9.70
2022-11-01T19:41:15.532Z,9.78
2022-11-01T19:43:42.313Z,9.77
2022-11-01T19:46:13.424Z,9.79
2022-11-01T19:48:40.102Z,9.81
2022-11-01T19:51:16.956Z,9.86
2022-11-01T19:53:45.411Z,9.88
2022-11-01T19:56:29.762Z,9.85
2022-11-01T19:59:02.918Z,9.94
2022-11-01T20:01:46.341Z,9.96
2022-11-01T20:04:23.049Z,9.92
2022-11-01T20:06:57.596Z,9.91
2022-11-01T20:09:27.626Z,10.01
2022-11-01T20:11:54.981Z,10.03
2022-11-01T20:14:22.331Z,10.02
2022-11-01T20:16:49.248Z,9.97
2022-11-01T20:19:17.709Z,10.03
2022-11-01T20:21:45.421Z,10.01
2022-11-01T20:24:12.518Z,9.96
2022-11-01T20:26:39.248Z,9.95
2022-11-01T20:29:05.932Z,10.00
2022-11-01T20:31:32.640Z,10.00
2022-11-01T20:34:00.072Z,9.96
2022-11-01T20:36:27.509Z,9.86
2022-11-01T20:38:54.115Z,9.86
2022-11-01T20:41:22.207Z,9.80
2022-11-01T20:43:48.801Z,9.77
2022-11-01T20:46:15.476Z,9.78
2022-11-01T20:48:42.058Z,9.76
2022-11-01T20:51:08.740Z,9.77
2022-11-01T20:53:35.433Z,9.67
2022-11-01T20:56:02.260Z,9.63
2022-11-01T20:58:29.013Z,9.59
2022-11-01T21:00:56.455Z,9.49
2022-11-01T21:03:24.574Z,9.50
2022-11-01T21:05:51.710Z,9.50
2022-11-01T21:08:25.844Z,9.57
2022-11-01T21:10:59.499Z,9.67
2022-11-01T21:13:30.011Z,9.61
2022-11-01T21:15:59.508Z,9.56
2022-11-01T21:18:39.678Z,9.51
2022-11-01T21:21:15.503Z,9.43
2022-11-01T21:23:44.609Z,9.42
2022-11-01T21:26:21.677Z,9.44
2022-11-01T21:28:58.783Z,9.47
2022-11-01T21:31:30.711Z,9.50
2022-11-01T21:34:04.290Z,9.50
2022-11-01T21:36:36.215Z,9.50
2022-11-01T21:39:12.555Z,9.44
2022-11-01T21:41:44.282Z,9.35
2022-11-01T21:44:26.260Z,9.43
2022-11-01T21:47:17.728Z,9.34
2022-11-01T21:49:44.481Z,9.39
2022-11-01T21:54:43.558Z,9.41
2022-11-01T21:57:11.382Z,9.43
2022-11-01T21:59:38.359Z,9.50
2022-11-01T22:02:06.882Z,9.52
2022-11-01T22:04:33.913Z,9.46
2022-11-01T22:07:02.503Z,9.47
2022-11-01T22:09:30.001Z,9.44
2022-11-01T22:11:57.057Z,9.48
2022-11-01T22:14:24.699Z,9.51
2022-11-01T22:16:51.893Z,9.49
2022-11-01T22:19:18.514Z,9.43
2022-11-01T22:24:12.636Z,9.46
2022-11-01T22:26:39.246Z,9.44
2022-11-01T22:29:06.039Z,9.44
2022-11-01T22:31:32.720Z,9.38
2022-11-01T22:33:59.413Z,9.29
2022-11-01T22:36:32.318Z,9.29
2022-11-01T22:39:00.849Z,9.28
2022-11-01T22:41:33.178Z,9.35
2022-11-01T22:44:12.143Z,9.40
2022-11-01T22:46:56.841Z,9.38
2022-11-01T22:49:48.902Z,9.34
2022-11-01T22:52:32.043Z,9.24
2022-11-01T22:55:05.534Z,9.18
2022-11-01T22:57:36.290Z,9.24
2022-11-01T23:00:26.161Z,9.24
2022-11-01T23:02:59.599Z,9.24
2022-11-01T23:05:26.785Z,9.28
2022-11-01T23:07:57.642Z,9.32
2022-11-01T23:10:30.825Z,9.42
2022-11-01T23:13:43.766Z,9.42
2022-11-01T23:16:24.474Z,9.37
2022-11-01T23:18:53.103Z,9.41
2022-11-01T23:21:22.423Z,9.40
2022-11-01T23:23:49.631Z,9.36
2022-11-01T23:26:18.650Z,9.41
2022-11-01T23:28:48.486Z,9.44
2022-11-01T23:31:15.620Z,9.41
2022-11-01T23:33:46.901Z,9.30
2022-11-01T23:36:13.425Z,9.33
2022-11-01T23:38:44.767Z,9.30
2022-11-01T23:41:23.136Z,9.37
2022-11-01T23:43:53.673Z,9.31
2022-11-01T23:46:20.622Z,9.32
2022-11-01T23:48:47.360Z,9.29
2022-11-01T23:51:21.478Z,9.26
2022-11-01T23:53:52.967Z,9.24
2022-11-01T23:56:21.995Z,9.19
2022-11-01T23:58:56.424Z,9.17
